createdAt,value
2022-09-26T00:01:17.116Z,95996.78
2022-09-26T00:03:45.374Z,95990.84
2022-09-26T00:06:13.047Z,95953.06
2022-09-26T00:08:40.883Z,95987.81
2022-09-26T00:11:12.618Z,95991.75
2022-09-26T00:13:41.974Z,96003.16
2022-09-26T00:16:13.302Z,96010.66
2022-09-26T00:18:41.760Z,95993.59
2022-09-26T00:21:10.498Z,95987.34
2022-09-26T00:23:38.644Z,95986.06
2022-09-26T00:26:07.605Z,95988.53
2022-09-26T00:28:36.560Z,95989.63
2022-09-26T00:31:05.100Z,95989.41
2022-09-26T00:33:37.517Z,95987.16
2022-09-26T00:36:05.477Z,95989.44
2022-09-26T00:38:33.420Z,95992.09
2022-09-26T00:41:01.170Z,95987.53
2022-09-26T00:43:32.566Z,95988.91
2022-09-26T00:46:00.945Z,95983.38
2022-09-26T00:48:28.747Z,95977.91
2022-09-26T00:50:58.465Z,95979.28
2022-09-26T00:53:28.177Z,95964.91
2022-09-26T00:55:59.789Z,95969.53
2022-09-26T00:58:28.358Z,95973.13
2022-09-26T01:00:56.060Z,95969.56
2022-09-26T01:03:24.237Z,95965.06
2022-09-26T01:05:52.016Z,95965.53
2022-09-26T01:08:25.431Z,95955.59
2022-09-26T01:10:53.522Z,95957.88
2022-09-26T01:13:22.038Z,95957.81
2022-09-26T01:15:51.383Z,95948.31
2022-09-26T01:18:22.249Z,95946.69
2022-09-26T01:20:55.567Z,95948.50
2022-09-26T01:23:32.786Z,95951.88
2022-09-26T01:26:06.406Z,95947.66
2022-09-26T01:28:37.703Z,95960.25
2022-09-26T01:31:08.906Z,95960.59
2022-09-26T01:33:42.958Z,95962.38
2022-09-26T01:36:34.832Z,95967.13
2022-09-26T01:39:05.001Z,95960.41
2022-09-26T01:41:37.691Z,95960.78
2022-09-26T01:44:08.273Z,95960.78
2022-09-26T01:46:38.939Z,95964.53
2022-09-26T01:49:08.731Z,95965.84
2022-09-26T01:51:37.465Z,95963.06
2022-09-26T01:54:06.285Z,95964.84
2022-09-26T01:56:36.725Z,95964.72
2022-09-26T01:59:05.035Z,95958.25
2022-09-26T02:01:34.248Z,95955.34
2022-09-26T02:04:07.903Z,95952.75
2022-09-26T02:06:37.276Z,95938.50
2022-09-26T02:09:06.161Z,95948.06
2022-09-26T02:11:35.494Z,95943.31
2022-09-26T02:14:04.304Z,95952.22
2022-09-26T02:16:32.917Z,95943.66
2022-09-26T02:19:01.106Z,95938.94
2022-09-26T02:21:31.491Z,95935.59
2022-09-26T02:23:59.314Z,95935.47
2022-09-26T02:26:26.891Z,95929.94
2022-09-26T02:28:54.692Z,95928.63
2022-09-26T02:31:25.887Z,95929.81
2022-09-26T02:33:53.729Z,95927.63
2022-09-26T02:39:16.938Z,95935.84
2022-09-26T02:41:47.669Z,95923.22
2022-09-26T02:44:30.116Z,95933.16
2022-09-26T02:47:05.881Z,95931.41
2022-09-26T02:49:38.809Z,95925.38
2022-09-26T02:52:12.252Z,95928.34
2022-09-26T02:54:44.084Z,95919.19
2022-09-26T02:57:16.643Z,95914.53
2022-09-26T02:59:47.275Z,95904.38
2022-09-26T03:02:15.873Z,95907.25
2022-09-26T03:04:48.721Z,95905.06
2022-09-26T03:07:17.884Z,95903.59
2022-09-26T03:09:48.385Z,95896.22
2022-09-26T03:12:16.753Z,95896.94
2022-09-26T03:14:47.070Z,95887.63
2022-09-26T03:17:18.898Z,95886.66
2022-09-26T03:19:47.629Z,95885.44
2022-09-26T03:22:17.078Z,95887.56
2022-09-26T03:24:44.784Z,95890.28
2022-09-26T03:27:14.760Z,95878.88
2022-09-26T03:29:42.340Z,95878.16
2022-09-26T03:32:10.293Z,95880.28
2022-09-26T03:34:49.840Z,95888.06
2022-09-26T03:37:17.582Z,95881.94
2022-09-26T03:39:50.977Z,95881.81
2022-09-26T03:42:20.677Z,95874.78
2022-09-26T03:44:51.431Z,95865.38
2022-09-26T03:47:19.248Z,95861.16
2022-09-26T03:49:47.169Z,95855.31
2022-09-26T03:52:14.837Z,95854.22
2022-09-26T03:54:42.892Z,95855.38
2022-09-26T03:57:12.851Z,95845.94
2022-09-26T03:59:42.396Z,95845.88
2022-09-26T04:02:10.075Z,95834.31
2022-09-26T04:04:37.790Z,95828.75
2022-09-26T04:07:05.399Z,95832.03
2022-09-26T04:09:33.330Z,95834.47
2022-09-26T04:12:01.231Z,95835.44
2022-09-26T04:14:29.143Z,95828.41
2022-09-26T04:17:17.479Z,95825.78
2022-09-26T04:19:46.602Z,95813.44
2022-09-26T04:22:14.165Z,95808.47
2022-09-26T04:24:44.598Z,95799.69
2022-09-26T04:27:13.080Z,95807.66
2022-09-26T04:29:40.911Z,95807.94
2022-09-26T04:32:08.757Z,95807.94
2022-09-26T04:34:38.369Z,95801.63
2022-09-26T04:37:09.026Z,95805.50
2022-09-26T04:39:37.071Z,95805.50
2022-09-26T04:42:04.789Z,95803.84
2022-09-26T04:44:32.862Z,95801.47
2022-09-26T04:47:00.771Z,95800.19
2022-09-26T04:49:29.872Z,95798.78
2022-09-26T04:51:57.757Z,95798.72
2022-09-26T04:54:27.673Z,95789.66
2022-09-26T04:56:55.298Z,95782.06
2022-09-26T04:59:25.524Z,95795.78
2022-09-26T05:01:58.768Z,95789.66
2022-09-26T05:04:27.803Z,95793.59
2022-09-26T05:06:59.195Z,95784.25
2022-09-26T05:09:30.771Z,95786.44
2022-09-26T05:12:02.240Z,95789.66
2022-09-26T05:14:29.819Z,95788.97
2022-09-26T05:16:57.465Z,95786.09
2022-09-26T05:19:25.408Z,95786.22
2022-09-26T05:21:52.979Z,95788.00
2022-09-26T05:24:40.090Z,95784.88
2022-09-26T05:27:09.647Z,95786.16
2022-09-26T05:29:37.241Z,95775.31
2022-09-26T05:32:07.620Z,95769.25
2022-09-26T05:34:35.231Z,95774.19
2022-09-26T05:37:03.008Z,95777.72
2022-09-26T05:39:48.208Z,95767.31
2022-09-26T05:42:17.606Z,95773.72
2022-09-26T05:44:45.575Z,95765.31
2022-09-26T05:47:14.046Z,95761.91
2022-09-26T05:49:41.995Z,95764.50
2022-09-26T05:52:10.092Z,95752.66
2022-09-26T05:54:38.072Z,95752.50
2022-09-26T05:57:05.788Z,95768.66
2022-09-26T05:59:37.867Z,95765.69
2022-09-26T06:02:08.657Z,95759.91
2022-09-26T06:04:42.144Z,95760.63
2022-09-26T06:07:10.577Z,95762.59
2022-09-26T06:09:41.060Z,95765.22
2022-09-26T06:12:12.522Z,95760.91
2022-09-26T06:14:47.138Z,95760.97
2022-09-26T06:17:15.291Z,95760.84
2022-09-26T06:19:43.750Z,95759.69
2022-09-26T06:22:13.161Z,95756.72
2022-09-26T06:24:51.072Z,95620.81
2022-09-26T06:27:20.382Z,95751.31
2022-09-26T06:29:49.469Z,95750.38
2022-09-26T06:32:20.942Z,95754.34
2022-09-26T06:34:48.919Z,95750.00
2022-09-26T06:37:16.767Z,95750.28
2022-09-26T06:39:45.181Z,95747.41
2022-09-26T06:42:12.959Z,95747.00
2022-09-26T06:44:40.651Z,95743.28
2022-09-26T06:47:12.703Z,95743.97
2022-09-26T06:49:40.632Z,95740.13
2022-09-26T06:52:08.480Z,95737.22
2022-09-26T06:54:40.580Z,95731.13
2022-09-26T06:57:12.807Z,95738.41
2022-09-26T06:59:42.370Z,95735.47
2022-09-26T07:02:12.439Z,95730.56
2022-09-26T07:04:40.281Z,95737.53
2022-09-26T07:07:08.070Z,95731.81
2022-09-26T07:09:36.175Z,95724.25
2022-09-26T07:12:20.749Z,95722.97
2022-09-26T07:14:53.438Z,95723.53
2022-09-26T07:17:27.455Z,95716.22
2022-09-26T07:19:57.679Z,95713.91
2022-09-26T07:22:25.226Z,95719.81
2022-09-26T07:24:52.807Z,95705.38
2022-09-26T07:27:23.445Z,95705.19
2022-09-26T07:29:51.036Z,95703.06
2022-09-26T07:32:22.221Z,95704.34
2022-09-26T07:34:54.458Z,95704.97
2022-09-26T07:37:22.527Z,95698.41
2022-09-26T07:39:54.740Z,95702.56
2022-09-26T07:42:27.173Z,95690.75
2022-09-26T07:48:01.836Z,95694.72
2022-09-26T07:50:31.285Z,95697.97
2022-09-26T07:53:03.856Z,95692.81
2022-09-26T07:55:31.561Z,95700.41
2022-09-26T07:57:59.620Z,95694.31
2022-09-26T08:00:31.633Z,95689.97
2022-09-26T08:03:01.850Z,95695.22
2022-09-26T08:05:32.424Z,95690.31
2022-09-26T08:08:00.181Z,95682.19
2022-09-26T08:10:28.212Z,95687.56
2022-09-26T08:12:56.837Z,95679.75
2022-09-26T08:15:24.774Z,95680.72
2022-09-26T08:17:52.785Z,95674.22
2022-09-26T08:20:21.063Z,95673.84
2022-09-26T08:22:50.827Z,95679.34
2022-09-26T08:25:18.886Z,95671.56
2022-09-26T08:27:50.660Z,95675.13
2022-09-26T08:30:18.223Z,95673.25
2022-09-26T08:32:53.357Z,95670.19
2022-09-26T08:35:23.897Z,95665.97
2022-09-26T08:37:57.244Z,95656.94
2022-09-26T08:40:27.694Z,95653.59
2022-09-26T08:42:57.463Z,95660.63
2022-09-26T08:45:47.558Z,95650.19
2022-09-26T08:48:19.767Z,95653.03
2022-09-26T08:50:50.267Z,95644.91
2022-09-26T08:53:20.721Z,95646.63
2022-09-26T08:55:50.301Z,95649.13
2022-09-26T08:58:18.436Z,95643.16
2022-09-26T09:00:47.870Z,95641.16
2022-09-26T09:03:19.728Z,95638.84
2022-09-26T09:05:50.345Z,95636.34
2022-09-26T09:08:27.603Z,95630.66
2022-09-26T09:10:56.929Z,95629.13
2022-09-26T09:13:32.127Z,95621.81
2022-09-26T09:16:13.212Z,95635.25
2022-09-26T09:18:42.461Z,95628.59
2022-09-26T09:21:12.107Z,95624.91
2022-09-26T09:23:45.880Z,95619.81
2022-09-26T09:29:12.633Z,95613.78
2022-09-26T09:31:42.273Z,95612.97
2022-09-26T09:34:11.289Z,95611.00
2022-09-26T09:36:40.462Z,95606.06
2022-09-26T09:39:10.743Z,95607.34
2022-09-26T09:41:39.604Z,95606.88
2022-09-26T09:44:11.027Z,95610.44
2022-09-26T09:46:39.715Z,95598.16
2022-09-26T09:49:13.636Z,95599.69
2022-09-26T09:51:43.911Z,95588.56
2022-09-26T09:54:27.787Z,95585.34
2022-09-26T09:57:02.874Z,95583.56
2022-09-26T09:59:40.188Z,95578.28
2022-09-26T10:02:14.308Z,95575.28
2022-09-26T10:04:44.059Z,95566.47
2022-09-26T10:07:11.674Z,95571.91
2022-09-26T10:09:42.952Z,95572.72
2022-09-26T10:12:17.640Z,95558.59
2022-09-26T10:14:47.787Z,95549.03
2022-09-26T10:17:20.779Z,95549.16
2022-09-26T10:19:51.969Z,95552.09
2022-09-26T10:22:28.499Z,95549.84
2022-09-26T10:25:00.669Z,95550.88
2022-09-26T10:27:38.998Z,95546.53
2022-09-26T10:30:25.864Z,95552.75
2022-09-26T10:32:56.642Z,95546.81
2022-09-26T10:35:25.529Z,95545.81
2022-09-26T10:37:59.411Z,95542.38
2022-09-26T10:40:48.410Z,95549.09
2022-09-26T10:43:23.097Z,95545.56
2022-09-26T10:45:53.895Z,95536.94
2022-09-26T10:48:22.498Z,95537.38
2022-09-26T10:50:51.484Z,95534.72
2022-09-26T10:53:23.068Z,95528.59
2022-09-26T10:55:52.438Z,95534.53
2022-09-26T10:58:24.241Z,95529.03
2022-09-26T11:00:52.442Z,95527.00
2022-09-26T11:03:21.486Z,95517.50
2022-09-26T11:05:59.097Z,95515.75
2022-09-26T11:08:27.895Z,95501.66
2022-09-26T11:11:01.010Z,95507.28
2022-09-26T11:13:39.509Z,95502.88
2022-09-26T11:16:11.073Z,95496.28
2022-09-26T11:18:43.170Z,95490.19
2022-09-26T11:21:28.375Z,95481.59
2022-09-26T11:23:59.241Z,95471.22
2022-09-26T11:26:28.218Z,95257.41
2022-09-26T11:29:03.947Z,95465.69
2022-09-26T11:31:32.399Z,95470.81
2022-09-26T11:34:00.679Z,95472.94
2022-09-26T11:36:34.497Z,95509.41
2022-09-26T11:39:03.693Z,95526.31
2022-09-26T11:41:42.119Z,95516.44
2022-09-26T11:44:33.854Z,95493.91
2022-09-26T11:47:07.139Z,95499.22
2022-09-26T11:49:50.701Z,95499.97
2022-09-26T11:52:22.097Z,95496.06
2022-09-26T11:54:58.799Z,95267.84
2022-09-26T11:57:33.056Z,95488.25
2022-09-26T12:00:07.629Z,95480.94
2022-09-26T12:02:46.204Z,95466.91
2022-09-26T12:05:28.510Z,95471.09
2022-09-26T12:08:02.135Z,95448.28
2022-09-26T12:10:32.667Z,95445.78
2022-09-26T12:13:07.079Z,95431.34
2022-09-26T12:15:35.881Z,95430.56
2022-09-26T12:18:07.733Z,95417.88
2022-09-26T12:20:36.765Z,95401.09
2022-09-26T12:23:14.326Z,95400.69
2022-09-26T12:25:46.287Z,95402.91
2022-09-26T12:28:17.681Z,95404.97
2022-09-26T12:30:48.560Z,95400.13
2022-09-26T12:33:25.027Z,95386.16
2022-09-26T12:35:57.085Z,95386.81
2022-09-26T12:38:46.068Z,95380.16
2022-09-26T12:41:15.503Z,95378.56
2022-09-26T12:43:50.556Z,95376.22
2022-09-26T12:46:22.130Z,95371.59
2022-09-26T12:48:57.240Z,95372.75
2022-09-26T12:51:31.739Z,95371.94
2022-09-26T12:54:16.997Z,95384.19
2022-09-26T12:56:47.236Z,95388.59
2022-09-26T12:59:17.625Z,95385.75
2022-09-26T13:02:01.942Z,95380.88
2022-09-26T13:04:44.478Z,95388.91
2022-09-26T13:07:19.231Z,95378.69
2022-09-26T13:09:55.467Z,95383.38
2022-09-26T13:12:31.198Z,95374.44
2022-09-26T13:15:02.131Z,95377.31
2022-09-26T13:17:32.287Z,95365.34
2022-09-26T13:20:02.261Z,95364.91
2022-09-26T13:22:35.199Z,95359.75
2022-09-26T13:25:08.152Z,95352.50
2022-09-26T13:27:39.504Z,95351.44
2022-09-26T13:30:09.055Z,95353.31
2022-09-26T13:32:40.552Z,95346.59
2022-09-26T13:35:09.708Z,95349.25
2022-09-26T13:37:41.995Z,95343.91
2022-09-26T13:40:14.630Z,95356.75
2022-09-26T13:42:43.656Z,95350.97
2022-09-26T13:45:18.398Z,95350.16
2022-09-26T13:47:47.504Z,95344.53
2022-09-26T13:50:23.164Z,95344.84
2022-09-26T13:52:57.141Z,95346.53
2022-09-26T13:55:25.526Z,95341.81
2022-09-26T13:58:04.359Z,95340.13
2022-09-26T14:00:58.058Z,95337.78
2022-09-26T14:03:47.424Z,95344.22
2022-09-26T14:06:32.768Z,95331.06
2022-09-26T14:09:28.960Z,95323.84
2022-09-26T14:12:20.107Z,95324.47
2022-09-26T14:14:52.159Z,95328.09
2022-09-26T14:17:38.473Z,95309.91
2022-09-26T14:20:06.258Z,95309.75
2022-09-26T14:22:39.435Z,95313.00
2022-09-26T14:25:10.683Z,95310.13
2022-09-26T14:27:47.938Z,95306.78
2022-09-26T14:30:30.487Z,95308.53
2022-09-26T14:33:02.326Z,95291.72
2022-09-26T14:35:30.449Z,95303.38
2022-09-26T14:38:00.772Z,95291.09
2022-09-26T14:40:29.736Z,95287.44
2022-09-26T14:43:02.799Z,95291.72
2022-09-26T14:45:42.430Z,95287.31
2022-09-26T14:48:10.423Z,95277.13
2022-09-26T14:50:44.349Z,95278.38
2022-09-26T14:53:12.567Z,95278.78
2022-09-26T14:55:51.442Z,95278.41
2022-09-26T14:58:29.653Z,95274.25
2022-09-26T15:01:05.171Z,95275.47
2022-09-26T15:03:33.323Z,95272.13
2022-09-26T15:06:04.965Z,95270.91
2022-09-26T15:08:35.115Z,95272.00
2022-09-26T15:11:06.662Z,95266.28
2022-09-26T15:13:35.748Z,95270.31
2022-09-26T15:16:09.910Z,95269.19
2022-09-26T15:18:38.779Z,95266.66
2022-09-26T15:21:17.844Z,95264.66
2022-09-26T15:23:46.638Z,95261.22
2022-09-26T15:26:17.442Z,95255.59
2022-09-26T15:28:45.768Z,95252.97
2022-09-26T15:31:28.255Z,95242.88
2022-09-26T15:33:57.138Z,95242.31
2022-09-26T15:36:28.507Z,95242.97
2022-09-26T15:38:56.208Z,95236.09
2022-09-26T15:41:41.293Z,95235.59
2022-09-26T15:44:09.143Z,95234.50
2022-09-26T15:46:38.484Z,95236.09
2022-09-26T15:49:14.340Z,95232.66
2022-09-26T15:51:42.071Z,95263.34
2022-09-26T15:54:11.489Z,95223.28
2022-09-26T15:56:39.741Z,95217.13
2022-09-26T15:59:11.721Z,95217.28
2022-09-26T16:01:43.189Z,95214.50
2022-09-26T16:04:15.461Z,95220.44
2022-09-26T16:06:43.939Z,95216.66
2022-09-26T16:09:17.505Z,95213.09
2022-09-26T16:11:47.800Z,95199.97
2022-09-26T16:14:26.622Z,95201.34
2022-09-26T16:16:56.383Z,95206.16
2022-09-26T16:19:34.210Z,95199.31
2022-09-26T16:22:19.806Z,95198.50
2022-09-26T16:24:49.778Z,95190.88
2022-09-26T16:27:21.370Z,95189.75
2022-09-26T16:29:51.027Z,95188.81
2022-09-26T16:32:22.943Z,95190.59
2022-09-26T16:34:51.141Z,95187.63
2022-09-26T16:37:19.777Z,95184.16
2022-09-26T16:39:55.182Z,95185.78
2022-09-26T16:42:25.777Z,95185.41
2022-09-26T16:44:54.859Z,95185.28
2022-09-26T16:47:40.591Z,95176.16
2022-09-26T16:50:22.623Z,95166.91
2022-09-26T16:52:50.782Z,95163.44
2022-09-26T16:55:18.549Z,95167.94
2022-09-26T16:57:49.987Z,95167.50
2022-09-26T17:00:36.089Z,95157.47
2022-09-26T17:03:03.852Z,95164.38
2022-09-26T17:05:33.297Z,95163.72
2022-09-26T17:08:04.347Z,95158.56
2022-09-26T17:10:37.436Z,95157.06
2022-09-26T17:13:07.137Z,95158.72
2022-09-26T17:15:35.571Z,95157.94
2022-09-26T17:18:03.495Z,95163.13
2022-09-26T17:20:33.794Z,95158.84
2022-09-26T17:23:17.148Z,95154.03
2022-09-26T17:25:55.373Z,95151.38
2022-09-26T17:28:29.218Z,95141.41
2022-09-26T17:30:58.005Z,95144.28
2022-09-26T17:33:27.368Z,95147.34
2022-09-26T17:38:43.860Z,95133.31
2022-09-26T17:41:12.487Z,95130.09
2022-09-26T17:43:40.585Z,95125.19
2022-09-26T17:46:15.176Z,95125.88
2022-09-26T17:48:43.767Z,95112.69
2022-09-26T17:51:13.951Z,95111.03
2022-09-26T17:53:50.776Z,95107.13
2022-09-26T17:56:19.037Z,95101.53
2022-09-26T17:58:47.239Z,95097.19
2022-09-26T18:01:19.245Z,95091.91
2022-09-26T18:03:47.436Z,95081.50
2022-09-26T18:06:17.407Z,95086.50
2022-09-26T18:08:46.481Z,95085.25
2022-09-26T18:11:14.762Z,95078.69
2022-09-26T18:13:47.449Z,95077.22
2022-09-26T18:16:15.649Z,95082.13
2022-09-26T18:18:45.403Z,95076.78
2022-09-26T18:21:16.397Z,95074.19
2022-09-26T18:23:45.381Z,95057.47
2022-09-26T18:26:16.953Z,95057.13
2022-09-26T18:28:47.429Z,95053.69
2022-09-26T18:31:15.598Z,95056.50
2022-09-26T18:33:43.341Z,94809.81
2022-09-26T18:36:12.186Z,95039.78
2022-09-26T18:38:39.824Z,95033.38
2022-09-26T18:41:08.243Z,95044.47
2022-09-26T18:43:42.423Z,95036.97
2022-09-26T18:46:10.920Z,95035.88
2022-09-26T18:48:38.624Z,95040.69
2022-09-26T18:51:06.459Z,95031.00
2022-09-26T18:53:37.680Z,95027.06
2022-09-26T18:56:22.868Z,95019.25
2022-09-26T18:58:52.503Z,95025.22
2022-09-26T19:01:22.837Z,95019.91
2022-09-26T19:03:50.936Z,95023.97
2022-09-26T19:06:22.118Z,95021.50
2022-09-26T19:08:54.834Z,95023.81
2022-09-26T19:11:23.184Z,95020.88
2022-09-26T19:13:53.178Z,95019.63
2022-09-26T19:16:21.366Z,95013.66
2022-09-26T19:18:49.189Z,95013.94
2022-09-26T19:21:33.318Z,95009.91
2022-09-26T19:24:01.186Z,95009.09
2022-09-26T19:26:30.983Z,95007.50
2022-09-26T19:29:00.473Z,95016.44
2022-09-26T19:31:28.298Z,95012.34
2022-09-26T19:33:56.102Z,95013.28
2022-09-26T19:36:23.722Z,95019.66
2022-09-26T19:38:53.036Z,95010.47
2022-09-26T19:41:20.726Z,95019.56
2022-09-26T19:43:48.677Z,95011.16
2022-09-26T19:46:22.980Z,95013.34
2022-09-26T19:48:53.450Z,95011.13
2022-09-26T19:51:21.160Z,95013.28
2022-09-26T19:53:49.252Z,95010.47
2022-09-26T19:56:17.929Z,95005.16
2022-09-26T19:58:46.358Z,94998.75
2022-09-26T20:01:19.034Z,95002.50
2022-09-26T20:03:48.498Z,94998.06
2022-09-26T20:06:17.492Z,94992.28
2022-09-26T20:08:45.509Z,94996.47
2022-09-26T20:11:13.675Z,94990.31
2022-09-26T20:13:58.652Z,94986.72
2022-09-26T20:16:26.756Z,94996.59
2022-09-26T20:19:10.343Z,94996.28
2022-09-26T20:21:37.971Z,94986.13
2022-09-26T20:24:05.759Z,94977.69
2022-09-26T20:26:35.956Z,94980.81
2022-09-26T20:29:03.700Z,94974.56
2022-09-26T20:31:31.403Z,94978.28
2022-09-26T20:34:07.145Z,94974.38
2022-09-26T20:36:37.729Z,94978.13
2022-09-26T20:39:06.031Z,94961.88
2022-09-26T20:41:37.204Z,94965.13
2022-09-26T20:44:06.674Z,94948.75
2022-09-26T20:46:35.255Z,94952.91
2022-09-26T20:49:06.458Z,94949.94
2022-09-26T20:51:36.069Z,94952.66
2022-09-26T20:54:04.336Z,94942.34
2022-09-26T20:56:34.990Z,94946.72
2022-09-26T20:59:03.312Z,94934.69
2022-09-26T21:01:31.096Z,94923.56
2022-09-26T21:03:59.143Z,94927.25
2022-09-26T21:06:29.422Z,94925.53
2022-09-26T21:08:57.508Z,94931.28
2022-09-26T21:11:25.276Z,94927.06
2022-09-26T21:13:52.918Z,94926.94
2022-09-26T21:16:25.259Z,94918.50
2022-09-26T21:18:53.258Z,94912.88
2022-09-26T21:21:21.922Z,94905.63
2022-09-26T21:23:52.703Z,94898.75
2022-09-26T21:26:21.353Z,94903.06
2022-09-26T21:28:50.596Z,94902.34
2022-09-26T21:31:20.887Z,94898.25
2022-09-26T21:33:49.502Z,94895.63
2022-09-26T21:36:25.175Z,94902.84
2022-09-26T21:38:54.943Z,94886.34
2022-09-26T21:41:22.693Z,94894.78
2022-09-26T21:43:57.355Z,94886.69
2022-09-26T21:46:27.184Z,94881.03
2022-09-26T21:48:55.534Z,94881.16
2022-09-26T21:51:23.561Z,94880.94
2022-09-26T21:53:52.664Z,94881.25
2022-09-26T21:56:25.591Z,94876.03
2022-09-26T21:58:53.911Z,94883.88
2022-09-26T22:01:21.837Z,94878.97
2022-09-26T22:03:49.667Z,94876.19
2022-09-26T22:06:17.259Z,94871.84
2022-09-26T22:08:44.860Z,94885.19
2022-09-26T22:11:14.547Z,94875.88
2022-09-26T22:13:43.818Z,94877.38
2022-09-26T22:16:12.071Z,94866.63
2022-09-26T22:18:40.471Z,94856.19
2022-09-26T22:21:08.995Z,94859.69
2022-09-26T22:23:36.720Z,94865.84
2022-09-26T22:26:07.683Z,94852.00
2022-09-26T22:28:38.014Z,94850.06
2022-09-26T22:31:07.538Z,94843.94
2022-09-26T22:33:35.452Z,94839.03
2022-09-26T22:36:05.417Z,94843.06
2022-09-26T22:38:36.499Z,94832.53
2022-09-26T22:41:04.646Z,94844.06
2022-09-26T22:43:32.866Z,94841.78
2022-09-26T22:46:04.033Z,94837.75
2022-09-26T22:48:33.957Z,94829.84
2022-09-26T22:51:03.216Z,94829.91
2022-09-26T22:53:31.748Z,94820.91
2022-09-26T22:56:05.170Z,94815.34
2022-09-26T22:58:37.458Z,94815.66
2022-09-26T23:01:05.501Z,94813.59
2022-09-26T23:03:38.578Z,94805.81
2022-09-26T23:06:06.377Z,94796.47
2022-09-26T23:08:34.176Z,94795.81
2022-09-26T23:11:04.817Z,94786.91
2022-09-26T23:13:35.567Z,94781.81
2022-09-26T23:16:06.786Z,94769.22
2022-09-26T23:18:34.811Z,94768.03
2022-09-26T23:21:07.694Z,94767.31
2022-09-26T23:23:37.962Z,94764.56
2022-09-26T23:26:08.361Z,94760.13
2022-09-26T23:28:36.073Z,94750.72
2022-09-26T23:31:07.321Z,94754.03
2022-09-26T23:33:35.154Z,94749.81
2022-09-26T23:36:03.262Z,94743.53
2022-09-26T23:38:32.269Z,94739.66
2022-09-26T23:41:00.112Z,94739.66
2022-09-26T23:43:28.241Z,94732.34
2022-09-26T23:45:58.016Z,94734.94
2022-09-26T23:48:25.983Z,94731.59
2022-09-26T23:50:53.677Z,94725.63
2022-09-26T23:53:22.227Z,94727.19
2022-09-26T23:55:56.017Z,94723.44
2022-09-26T23:58:24.155Z,94716.19
